Time;durP1;ratioP1;P1;durP2;ratioP2;P2;SDS_P1;SDS_P2;PMS_P1;PMS_P2;Temp;Humidity;BMP_temperature;BMP_pressure;BME280_temperature;BME280_humidity;BME280_pressure;Samples;Min_cycle;Max_cycle;Signal;HPM_P1;HPM_P2
2023/03/13 00:01:27;;;;;;;4.53;3.63;;;;;;;;;;5076688;28;20025;-21
2023/03/13 00:03:54;;;;;;;4.20;3.50;;;;;;;;;;5076746;28;20039;-23
2023/03/13 00:06:21;;;;;;;3.47;3.17;;;;;;;;;;5076748;28;20020;-22
2023/03/13 00:08:47;;;;;;;3.00;2.70;;;;;;;;;;5076605;28;20356;-22
2023/03/13 00:11:14;;;;;;;4.30;3.72;;;;;;;;;;5076367;28;20060;-21
2023/03/13 00:13:40;;;;;;;5.15;3.67;;;;;;;;;;5076213;28;20444;-22
2023/03/13 00:16:14;;;;;;;3.80;3.42;;;;;;;;;;5076293;28;20013;-21
2023/03/13 00:18:50;;;;;;;4.75;3.65;;;;;;;;;;5076158;28;20102;-21
2023/03/13 00:21:17;;;;;;;4.20;3.80;;;;;;;;;;5076682;28;20021;-23
2023/03/13 00:23:43;;;;;;;3.85;3.30;;;;;;;;;;5075878;28;20024;-22
2023/03/13 00:26:10;;;;;;;3.72;3.42;;;;;;;;;;5076064;28;20034;-22
2023/03/13 00:28:37;;;;;;;4.40;3.85;;;;;;;;;;5075929;28;20104;-21
2023/03/13 00:31:08;;;;;;;3.97;3.60;;;;;;;;;;5075972;28;20043;-22
2023/03/13 00:33:34;;;;;;;6.47;4.18;;;;;;;;;;5075818;28;20020;-21
2023/03/13 00:36:01;;;;;;;4.20;3.80;;;;;;;;;;5075798;28;20137;-23
2023/03/13 00:38:28;;;;;;;3.72;3.42;;;;;;;;;;5075794;28;20024;-22
2023/03/13 00:41:01;;;;;;;4.93;4.07;;;;;;;;;;5075986;28;20028;-21
2023/03/13 00:43:27;;;;;;;4.93;3.83;;;;;;;;;;5075632;28;20105;-22
2023/03/13 00:45:54;;;;;;;4.20;3.75;;;;;;;;;;5075900;28;20111;-21
2023/03/13 00:48:20;;;;;;;4.57;3.97;;;;;;;;;;5075371;28;20048;-23
2023/03/13 00:50:46;;;;;;;6.70;4.22;;;;;;;;;;5075738;28;20436;-23
2023/03/13 00:53:12;;;;;;;3.65;2.60;;;;;;;;;;5075353;28;20082;-22
2023/03/13 00:55:38;;;;;;;3.92;3.47;;;;;;;;;;5075721;28;20032;-21
2023/03/13 00:58:04;;;;;;;3.78;3.30;;;;;;;;;;5075430;28;20032;-23
2023/03/13 01:00:30;;;;;;;3.83;3.42;;;;;;;;;;5075183;28;20039;-21
2023/03/13 01:02:56;;;;;;;3.42;3.13;;;;;;;;;;5075247;28;20039;-23
2023/03/13 01:05:22;;;;;;;3.70;3.35;;;;;;;;;;5075259;28;20120;-21
2023/03/13 01:07:49;;;;;;;3.95;3.60;;;;;;;;;;5075488;28;20035;-21
2023/03/13 01:10:16;;;;;;;3.90;3.25;;;;;;;;;;5075095;28;20033;-23
2023/03/13 01:12:42;;;;;;;4.47;3.22;;;;;;;;;;5075335;28;20444;-21
2023/03/13 01:15:09;;;;;;;4.40;4.00;;;;;;;;;;5075114;28;20360;-21
2023/03/13 01:17:35;;;;;;;4.55;4.20;;;;;;;;;;5075282;28;20040;-20
2023/03/13 01:20:01;;;;;;;3.40;3.10;;;;;;;;;;5074998;28;20107;-21
2023/03/13 01:22:27;;;;;;;4.70;3.50;;;;;;;;;;5075209;28;20443;-21
2023/03/13 01:24:53;;;;;;;6.55;3.45;;;;;;;;;;5075262;28;20032;-21
2023/03/13 01:27:19;;;;;;;3.90;3.50;;;;;;;;;;5074972;28;20028;-21
2023/03/13 01:29:45;;;;;;;4.22;3.30;;;;;;;;;;5074810;28;20043;-21
2023/03/13 01:32:11;;;;;;;3.55;3.17;;;;;;;;;;5075101;28;20024;-21
2023/03/13 01:34:39;;;;;;;3.85;3.42;;;;;;;;;;5075396;28;20031;-21
2023/03/13 01:37:05;;;;;;;5.32;3.47;;;;;;;;;;5075678;28;20028;-21
2023/03/13 01:39:31;;;;;;;4.07;3.67;;;;;;;;;;5074995;28;20020;-21
2023/03/13 01:41:57;;;;;;;3.13;2.92;;;;;;;;;;5090622;28;20149;-21
2023/03/13 01:44:25;;;;;;;4.38;3.47;;;;;;;;;;5075029;28;20421;-20
2023/03/13 01:46:51;;;;;;;4.35;3.50;;;;;;;;;;5074718;28;20035;-21
2023/03/13 01:49:32;;;;;;;3.97;3.33;;;;;;;;;;5074464;28;20052;-21
2023/03/13 01:52:00;;;;;;;4.10;3.70;;;;;;;;;;5075659;28;20056;-21
2023/03/13 01:54:52;;;;;;;3.95;3.58;;;;;;;;;;5074620;28;20028;-23
2023/03/13 01:57:24;;;;;;;4.72;4.05;;;;;;;;;;5073455;28;20043;-23
2023/03/13 01:59:56;;;;;;;4.45;3.22;;;;;;;;;;5073983;28;20103;-24
2023/03/13 02:02:23;;;;;;;4.32;3.58;;;;;;;;;;5074489;28;20024;-21
2023/03/13 02:04:52;;;;;;;3.65;3.35;;;;;;;;;;5074539;28;20028;-22
2023/03/13 02:07:20;;;;;;;4.10;3.70;;;;;;;;;;5074745;28;20020;-22
2023/03/13 02:09:50;;;;;;;4.00;3.50;;;;;;;;;;5074880;28;20086;-21
2023/03/13 02:12:24;;;;;;;4.13;3.55;;;;;;;;;;5074424;28;20024;-21
2023/03/13 02:14:50;;;;;;;3.45;3.15;;;;;;;;;;5074749;28;20013;-24
2023/03/13 02:17:16;;;;;;;3.85;3.20;;;;;;;;;;5074683;28;20029;-21
2023/03/13 02:19:44;;;;;;;3.88;3.45;;;;;;;;;;5074363;28;20391;-21
2023/03/13 02:22:13;;;;;;;3.78;3.00;;;;;;;;;;5074594;28;20052;-21
2023/03/13 02:24:49;;;;;;;5.63;3.78;;;;;;;;;;5074615;28;20025;-22
2023/03/13 02:27:15;;;;;;;3.80;3.38;;;;;;;;;;5074864;28;20107;-21
2023/03/13 02:29:41;;;;;;;4.13;3.40;;;;;;;;;;5074177;28;20047;-21
2023/03/13 02:32:07;;;;;;;4.47;3.80;;;;;;;;;;5074873;28;20078;-21
2023/03/13 02:34:35;;;;;;;4.40;3.45;;;;;;;;;;5074276;28;20029;-21
2023/03/13 02:37:04;;;;;;;3.17;2.92;;;;;;;;;;5074467;28;20025;-20
2023/03/13 02:39:31;;;;;;;4.13;3.35;;;;;;;;;;5074468;28;20502;-21
2023/03/13 02:41:58;;;;;;;4.38;3.67;;;;;;;;;;5074119;28;20032;-21
2023/03/13 02:44:24;;;;;;;4.30;3.50;;;;;;;;;;5074106;28;20036;-22
2023/03/13 02:46:51;;;;;;;4.55;4.15;;;;;;;;;;5074381;28;20085;-21
2023/03/13 02:49:28;;;;;;;3.08;2.80;;;;;;;;;;5077165;28;20049;-21
2023/03/13 02:51:56;;;;;;;4.20;3.60;;;;;;;;;;5077748;28;20028;-23
2023/03/13 02:54:24;;;;;;;2.88;2.67;;;;;;;;;;5078343;28;20016;-21
2023/03/13 02:56:53;;;;;;;3.40;3.10;;;;;;;;;;5094775;28;20023;-21
2023/03/13 02:59:19;;;;;;;3.55;3.25;;;;;;;;;;5078560;28;20340;-23
2023/03/13 03:01:45;;;;;;;4.18;3.78;;;;;;;;;;5077931;28;20047;-22
2023/03/13 03:04:11;;;;;;;4.38;3.30;;;;;;;;;;5077534;28;20028;-22
2023/03/13 03:06:37;;;;;;;4.35;3.40;;;;;;;;;;5077582;28;20036;-21
2023/03/13 03:09:04;;;;;;;3.72;3.30;;;;;;;;;;5077716;28;20099;-21
2023/03/13 03:11:30;;;;;;;3.75;3.30;;;;;;;;;;5093407;28;20025;-21
2023/03/13 03:13:56;;;;;;;3.58;3.28;;;;;;;;;;5077604;28;20350;-21
2023/03/13 03:16:22;;;;;;;4.15;3.22;;;;;;;;;;5077720;28;20025;-21
2023/03/13 03:18:48;;;;;;;3.92;3.03;;;;;;;;;;5077629;28;20017;-22
2023/03/13 03:21:14;;;;;;;3.53;3.20;;;;;;;;;;5077624;28;20020;-21
2023/03/13 03:23:40;;;;;;;3.60;2.67;;;;;;;;;;5077473;28;20344;-22
2023/03/13 03:26:07;;;;;;;2.80;2.60;;;;;;;;;;5077264;28;20028;-24
2023/03/13 03:28:33;;;;;;;3.38;3.08;;;;;;;;;;5077169;28;20100;-22
2023/03/13 03:31:06;;;;;;;3.75;3.30;;;;;;;;;;5077407;28;20025;-21
2023/03/13 03:33:32;;;;;;;3.40;2.63;;;;;;;;;;5077300;28;20081;-24
2023/03/13 03:36:00;;;;;;;3.50;3.20;;;;;;;;;;5077073;28;20456;-21
2023/03/13 03:38:26;;;;;;;3.60;2.97;;;;;;;;;;5076968;28;20036;-21
2023/03/13 03:40:52;;;;;;;6.18;3.67;;;;;;;;;;5076913;28;20104;-20
2023/03/13 03:43:18;;;;;;;3.70;3.20;;;;;;;;;;5076877;28;20035;-21
2023/03/13 03:45:44;;;;;;;3.10;2.83;;;;;;;;;;5076843;28;20051;-21
2023/03/13 03:48:10;;;;;;;2.55;2.33;;;;;;;;;;5080612;28;20475;-21
2023/03/13 03:50:36;;;;;;;2.63;2.50;;;;;;;;;;5092669;28;20341;-22
2023/03/13 03:53:02;;;;;;;3.38;3.10;;;;;;;;;;5076705;28;20081;-21
2023/03/13 03:55:29;;;;;;;3.65;2.65;;;;;;;;;;5076709;28;20141;-21
2023/03/13 03:57:55;;;;;;;3.28;3.08;;;;;;;;;;5076524;28;20039;-21
2023/03/13 04:00:21;;;;;;;3.38;2.85;;;;;;;;;;5076613;28;20359;-21
2023/03/13 04:02:47;;;;;;;4.13;3.20;;;;;;;;;;5076484;28;20146;-22
2023/03/13 04:05:14;;;;;;;3.33;3.03;;;;;;;;;;5076806;28;20024;-21
2023/03/13 04:07:40;;;;;;;3.40;3.10;;;;;;;;;;5076735;28;20025;-21
2023/03/13 04:10:07;;;;;;;3.65;3.35;;;;;;;;;;5076332;28;20028;-21
2023/03/13 04:12:33;;;;;;;3.03;2.83;;;;;;;;;;5076255;28;20096;-21
2023/03/13 04:14:59;;;;;;;3.63;3.30;;;;;;;;;;5076261;28;20024;-22
2023/03/13 04:17:25;;;;;;;3.17;2.88;;;;;;;;;;5076227;28;20332;-21
2023/03/13 04:19:52;;;;;;;3.40;2.90;;;;;;;;;;5076864;28;20039;-21
2023/03/13 04:22:18;;;;;;;4.50;2.88;;;;;;;;;;5076086;28;20029;-24
2023/03/13 04:24:44;;;;;;;3.97;2.92;;;;;;;;;;5076040;28;20051;-21
2023/03/13 04:27:10;;;;;;;2.80;2.60;;;;;;;;;;5076348;28;20124;-21
2023/03/13 04:29:36;;;;;;;2.72;2.53;;;;;;;;;;5075922;28;20036;-21
2023/03/13 04:32:02;;;;;;;3.30;3.10;;;;;;;;;;5075833;28;20035;-21
2023/03/13 04:34:28;;;;;;;3.28;3.08;;;;;;;;;;5076430;28;20054;-23
2023/03/13 04:36:54;;;;;;;2.70;2.45;;;;;;;;;;5075845;28;20077;-23
2023/03/13 04:39:24;;;;;;;3.30;3.10;;;;;;;;;;5075708;28;20447;-21
2023/03/13 04:41:54;;;;;;;3.30;2.80;;;;;;;;;;5075562;28;20036;-21
2023/03/13 04:44:20;;;;;;;3.58;2.40;;;;;;;;;;5075675;28;20024;-21
2023/03/13 04:46:46;;;;;;;2.72;2.53;;;;;;;;;;5075823;28;20024;-21
2023/03/13 04:49:13;;;;;;;3.13;2.75;;;;;;;;;;5075429;28;20037;-21
2023/03/13 04:51:40;;;;;;;4.00;3.25;;;;;;;;;;5075448;28;20029;-22
2023/03/13 04:54:06;;;;;;;3.20;2.90;;;;;;;;;;5075378;28;20404;-21
2023/03/13 04:56:32;;;;;;;2.80;2.60;;;;;;;;;;5075457;28;20063;-21
2023/03/13 04:58:58;;;;;;;3.17;2.95;;;;;;;;;;5075589;28;20100;-21
2023/03/13 05:01:24;;;;;;;3.20;2.90;;;;;;;;;;5075534;28;20043;-21
2023/03/13 05:03:50;;;;;;;2.80;2.60;;;;;;;;;;5075244;28;20048;-20
2023/03/13 05:06:16;;;;;;;2.75;2.55;;;;;;;;;;5075470;28;20020;-21
2023/03/13 05:08:43;;;;;;;4.95;2.63;;;;;;;;;;5090992;28;20020;-21
2023/03/13 05:11:09;;;;;;;3.22;2.78;;;;;;;;;;5074363;28;20021;-21
2023/03/13 05:13:35;;;;;;;2.70;2.50;;;;;;;;;;5090882;28;20458;-21
2023/03/13 05:16:01;;;;;;;2.55;2.35;;;;;;;;;;5074860;28;20356;-22
2023/03/13 05:18:28;;;;;;;3.13;2.90;;;;;;;;;;5075026;28;20028;-21
2023/03/13 05:20:54;;;;;;;3.85;2.92;;;;;;;;;;5074741;28;20155;-21
2023/03/13 05:23:20;;;;;;;3.80;2.70;;;;;;;;;;5074675;28;20031;-22
2023/03/13 05:25:46;;;;;;;2.75;2.42;;;;;;;;;;5074634;28;20032;-23
2023/03/13 05:28:12;;;;;;;3.13;2.83;;;;;;;;;;5074513;28;20028;-21
2023/03/13 05:30:38;;;;;;;3.33;2.67;;;;;;;;;;5074577;28;20025;-22
2023/03/13 05:33:05;;;;;;;4.45;3.45;;;;;;;;;;5074771;28;20028;-22
2023/03/13 05:35:31;;;;;;;6.63;2.63;;;;;;;;;;5074403;28;20032;-23
2023/03/13 05:37:57;;;;;;;2.90;2.60;;;;;;;;;;5090188;28;20020;-22
2023/03/13 05:40:23;;;;;;;5.05;2.63;;;;;;;;;;5074556;28;20099;-24
2023/03/13 05:42:49;;;;;;;3.72;3.30;;;;;;;;;;5074326;28;20119;-21
2023/03/13 05:45:15;;;;;;;2.67;2.47;;;;;;;;;;5074033;28;20039;-21
2023/03/13 05:47:41;;;;;;;3.30;3.00;;;;;;;;;;5073716;28;20051;-22
2023/03/13 05:50:08;;;;;;;3.58;2.38;;;;;;;;;;5074013;28;20135;-21
2023/03/13 05:52:34;;;;;;;3.70;2.78;;;;;;;;;;5074243;28;20081;-21
2023/03/13 05:55:00;;;;;;;2.20;2.10;;;;;;;;;;5090285;28;20021;-21
2023/03/13 05:57:26;;;;;;;2.92;2.47;;;;;;;;;;5074523;28;20085;-21
2023/03/13 05:59:52;;;;;;;3.83;2.60;;;;;;;;;;5074043;28;20050;-21
2023/03/13 06:02:19;;;;;;;3.83;3.15;;;;;;;;;;5498061;22;20445;-27
2023/03/13 06:04:46;;;;;;;3.55;2.38;;;;;;;;;;5114666;28;20047;-24
2023/03/13 06:07:12;;;;;;;3.05;2.55;;;;;;;;;;5096667;28;20361;-23
2023/03/13 06:09:39;;;;;;;2.50;2.15;;;;;;;;;;5114596;28;20084;-23
2023/03/13 06:12:06;;;;;;;4.55;2.63;;;;;;;;;;5114935;28;20361;-23
2023/03/13 06:14:32;;;;;;;3.70;2.30;;;;;;;;;;5114761;28;20024;-26
2023/03/13 06:16:58;;;;;;;5.43;2.33;;;;;;;;;;5115135;28;20030;-24
2023/03/13 06:19:25;;;;;;;2.28;2.08;;;;;;;;;;5114705;28;20019;-24
2023/03/13 06:21:51;;;;;;;3.00;2.25;;;;;;;;;;5116074;28;20027;-24
2023/03/13 06:24:18;;;;;;;2.58;2.38;;;;;;;;;;5101128;28;20089;-24
2023/03/13 06:26:44;;;;;;;3.50;2.67;;;;;;;;;;5100766;28;20046;-26
2023/03/13 06:29:10;;;;;;;2.60;2.40;;;;;;;;;;5119080;28;20023;-26
2023/03/13 06:31:37;;;;;;;4.40;2.50;;;;;;;;;;5119021;28;20023;-23
2023/03/13 06:34:03;;;;;;;2.63;2.42;;;;;;;;;;5118631;28;20327;-23
2023/03/13 06:36:29;;;;;;;4.88;2.45;;;;;;;;;;5119065;28;20043;-26
2023/03/13 06:38:55;;;;;;;5.40;2.05;;;;;;;;;;5118713;28;20049;-23
2023/03/13 06:41:21;;;;;;;2.97;2.45;;;;;;;;;;5118302;28;20030;-24
2023/03/13 06:43:47;;;;;;;2.40;2.20;;;;;;;;;;5100261;28;20446;-24
2023/03/13 06:46:22;;;;;;;3.15;2.45;;;;;;;;;;5118474;28;20044;-24
2023/03/13 06:48:48;;;;;;;3.08;2.78;;;;;;;;;;5118356;28;20023;-24
2023/03/13 06:51:15;;;;;;;3.75;2.35;;;;;;;;;;5118354;28;20019;-24
2023/03/13 06:53:42;;;;;;;5.25;2.70;;;;;;;;;;5118368;28;20050;-24
2023/03/13 06:56:08;;;;;;;3.05;2.67;;;;;;;;;;5118119;28;20023;-24
2023/03/13 06:58:35;;;;;;;3.90;1.98;;;;;;;;;;5118101;28;20034;-24
2023/03/13 07:01:07;;;;;;;4.57;2.40;;;;;;;;;;5118271;28;20024;-24
2023/03/13 07:03:33;;;;;;;3.72;2.70;;;;;;;;;;5117718;28;20043;-24
2023/03/13 07:06:00;;;;;;;3.58;2.83;;;;;;;;;;5118215;28;20350;-24
2023/03/13 07:08:27;;;;;;;2.53;2.30;;;;;;;;;;5118130;28;20062;-25
2023/03/13 07:11:04;;;;;;;3.97;2.38;;;;;;;;;;5099578;28;20041;-24
2023/03/13 07:13:30;;;;;;;2.80;2.60;;;;;;;;;;5118734;28;20338;-24
2023/03/13 07:15:59;;;;;;;4.30;2.25;;;;;;;;;;5117957;28;20094;-24
2023/03/13 07:18:25;;;;;;;3.45;2.60;;;;;;;;;;5117627;28;20031;-24
2023/03/13 07:20:53;;;;;;;2.40;2.20;;;;;;;;;;5117669;28;20350;-24
2023/03/13 07:23:19;;;;;;;2.25;1.95;;;;;;;;;;5117434;28;20433;-24
2023/03/13 07:25:52;;;;;;;2.25;2.00;;;;;;;;;;5117676;28;20028;-24
2023/03/13 07:28:18;;;;;;;4.40;2.10;;;;;;;;;;5117839;28;20036;-24
2023/03/13 07:30:44;;;;;;;2.80;2.55;;;;;;;;;;5117392;28;20152;-24
2023/03/13 07:33:10;;;;;;;7.38;2.28;;;;;;;;;;5116705;28;20032;-24
2023/03/13 07:35:36;;;;;;;3.75;2.47;;;;;;;;;;5117862;28;20346;-24
2023/03/13 07:38:03;;;;;;;3.20;2.15;;;;;;;;;;5117523;28;20050;-24
2023/03/13 07:40:29;;;;;;;4.30;2.35;;;;;;;;;;5117180;28;20029;-24
2023/03/13 07:42:55;;;;;;;5.93;2.13;;;;;;;;;;5117319;28;20339;-24
2023/03/13 07:45:21;;;;;;;6.43;2.92;;;;;;;;;;5117418;28;20123;-24
2023/03/13 07:47:47;;;;;;;5.88;2.08;;;;;;;;;;5117362;28;20032;-24
2023/03/13 07:50:13;;;;;;;6.57;2.50;;;;;;;;;;5117283;28;20119;-24
2023/03/13 07:52:39;;;;;;;3.08;2.45;;;;;;;;;;5099381;28;20016;-24
2023/03/13 07:55:05;;;;;;;5.25;2.60;;;;;;;;;;5117330;28;20027;-24
2023/03/13 07:57:32;;;;;;;3.97;2.10;;;;;;;;;;5116957;28;20084;-24
2023/03/13 07:59:58;;;;;;;2.75;2.28;;;;;;;;;;5117005;28;20091;-24
2023/03/13 08:02:24;;;;;;;2.88;2.03;;;;;;;;;;5116751;28;20346;-24
2023/03/13 08:04:53;;;;;;;3.33;2.35;;;;;;;;;;5117339;28;20035;-24
2023/03/13 08:07:19;;;;;;;3.42;1.98;;;;;;;;;;5117176;28;20070;-24
2023/03/13 08:09:45;;;;;;;4.85;2.40;;;;;;;;;;5117097;28;20054;-24
2023/03/13 08:12:11;;;;;;;7.57;2.08;;;;;;;;;;5116997;28;20354;-24
2023/03/13 08:14:37;;;;;;;12.23;3.38;;;;;;;;;;5116538;28;20024;-24
2023/03/13 08:17:04;;;;;;;4.78;2.22;;;;;;;;;;5116609;28;20098;-24
2023/03/13 08:19:30;;;;;;;4.85;2.50;;;;;;;;;;5117033;28;20361;-24
2023/03/13 08:21:56;;;;;;;4.88;2.38;;;;;;;;;;5098658;28;20458;-25
2023/03/13 08:24:22;;;;;;;6.38;2.90;;;;;;;;;;5116835;28;20119;-25
2023/03/13 08:26:48;;;;;;;3.00;2.40;;;;;;;;;;5116847;28;20057;-26
2023/03/13 08:29:15;;;;;;;3.92;2.20;;;;;;;;;;5116784;28;20432;-26
2023/03/13 08:31:44;;;;;;;6.57;3.47;;;;;;;;;;5116262;28;20047;-25
2023/03/13 08:34:11;;;;;;;4.88;2.40;;;;;;;;;;5116348;28;20015;-25
2023/03/13 08:36:38;;;;;;;5.00;2.90;;;;;;;;;;5116235;28;20031;-25
2023/03/13 08:39:05;;;;;;;10.52;2.60;;;;;;;;;;5116543;28;20019;-26
2023/03/13 08:41:35;;;;;;;7.18;2.42;;;;;;;;;;5116006;28;20027;-26
2023/03/13 08:44:02;;;;;;;7.60;3.47;;;;;;;;;;5115944;28;20016;-26
2023/03/13 08:46:29;;;;;;;5.05;2.55;;;;;;;;;;5116119;28;20076;-26
2023/03/13 08:48:55;;;;;;;6.95;2.80;;;;;;;;;;5115656;28;20020;-25
2023/03/13 08:51:23;;;;;;;10.73;3.78;;;;;;;;;;5116144;28;20020;-26
2023/03/13 08:53:49;;;;;;;5.68;2.67;;;;;;;;;;5115654;28;20034;-26
2023/03/13 08:56:17;;;;;;;2.95;2.28;;;;;;;;;;5115726;28;20076;-26
2023/03/13 08:58:44;;;;;;;4.88;1.90;;;;;;;;;;5097741;28;20358;-26
2023/03/13 09:01:12;;;;;;;7.13;2.47;;;;;;;;;;5116138;28;20403;-25
2023/03/13 09:03:38;;;;;;;5.22;2.45;;;;;;;;;;5115469;28;20112;-25
2023/03/13 09:06:05;;;;;;;4.97;2.65;;;;;;;;;;5115728;28;20024;-25
2023/03/13 09:08:31;;;;;;;3.70;2.53;;;;;;;;;;5115495;28;20037;-26
2023/03/13 09:10:58;;;;;;;9.70;2.65;;;;;;;;;;5115359;28;20035;-26
2023/03/13 09:13:25;;;;;;;5.32;2.38;;;;;;;;;;5097407;28;20350;-26
2023/03/13 09:16:01;;;;;;;9.80;2.83;;;;;;;;;;5097579;28;20027;-26
2023/03/13 09:18:28;;;;;;;11.40;2.80;;;;;;;;;;5115233;28;20023;-25
2023/03/13 09:20:54;;;;;;;6.15;3.15;;;;;;;;;;5115195;28;20106;-26
2023/03/13 09:23:21;;;;;;;7.15;2.55;;;;;;;;;;5115275;28;20031;-26
2023/03/13 09:25:47;;;;;;;4.43;2.42;;;;;;;;;;5115263;28;20023;-27
2023/03/13 09:28:14;;;;;;;5.97;1.85;;;;;;;;;;5115147;28;20114;-26
2023/03/13 09:30:40;;;;;;;7.75;2.28;;;;;;;;;;5115281;28;20024;-25
2023/03/13 09:33:06;;;;;;;6.63;2.72;;;;;;;;;;5115268;28;20350;-25
2023/03/13 09:35:33;;;;;;;6.03;2.22;;;;;;;;;;5114956;28;20434;-25
2023/03/13 09:37:59;;;;;;;7.68;2.47;;;;;;;;;;5114928;28;20061;-26
2023/03/13 09:40:26;;;;;;;9.20;2.67;;;;;;;;;;5114902;28;20023;-26
2023/03/13 09:42:53;;;;;;;6.72;2.50;;;;;;;;;;5114768;28;20051;-25
2023/03/13 09:45:25;;;;;;;3.78;2.20;;;;;;;;;;5114961;28;20023;-26
2023/03/13 09:47:58;;;;;;;10.77;2.35;;;;;;;;;;5115021;28;20069;-26
2023/03/13 09:50:29;;;;;;;3.25;2.25;;;;;;;;;;5114924;28;20112;-26
2023/03/13 09:52:59;;;;;;;5.30;2.65;;;;;;;;;;5114893;28;20035;-26
2023/03/13 09:55:36;;;;;;;7.57;2.67;;;;;;;;;;5114872;28;20107;-26
2023/03/13 09:58:12;;;;;;;2.92;2.20;;;;;;;;;;5114761;28;20404;-25
2023/03/13 10:00:39;;;;;;;4.10;2.20;;;;;;;;;;5115119;28;20306;-25
2023/03/13 10:03:12;;;;;;;3.53;2.60;;;;;;;;;;5114732;28;20126;-25
2023/03/13 10:05:43;;;;;;;3.45;2.15;;;;;;;;;;5115016;28;20106;-25
2023/03/13 10:08:19;;;;;;;2.35;2.03;;;;;;;;;;5115031;28;20024;-26
2023/03/13 10:11:04;;;;;;;3.65;2.35;;;;;;;;;;5114913;28;20115;-25
2023/03/13 10:13:30;;;;;;;2.60;2.10;;;;;;;;;;5096681;28;20035;-25
2023/03/13 10:15:57;;;;;;;3.00;2.13;;;;;;;;;;5114657;28;20027;-25
2023/03/13 10:18:24;;;;;;;5.68;2.42;;;;;;;;;;5114621;28;20399;-25
2023/03/13 10:20:52;;;;;;;4.85;2.30;;;;;;;;;;5097069;28;20118;-26
2023/03/13 10:23:18;;;;;;;7.45;3.35;;;;;;;;;;5114913;28;20558;-25
2023/03/13 10:25:44;;;;;;;6.55;1.98;;;;;;;;;;5114603;28;20028;-25
2023/03/13 10:28:15;;;;;;;6.63;2.25;;;;;;;;;;5114352;28;20028;-26
2023/03/13 10:30:47;;;;;;;5.43;2.53;;;;;;;;;;5114718;28;20034;-26
2023/03/13 10:33:13;;;;;;;8.82;2.50;;;;;;;;;;5114665;28;20223;-26
2023/03/13 10:35:41;;;;;;;5.60;1.90;;;;;;;;;;5115528;28;20012;-26
2023/03/13 10:38:15;;;;;;;8.93;2.50;;;;;;;;;;5114517;28;20020;-24
2023/03/13 10:40:44;;;;;;;6.80;2.45;;;;;;;;;;5114286;28;20023;-24
2023/03/13 10:43:17;;;;;;;6.95;2.28;;;;;;;;;;5114619;28;20028;-24
2023/03/13 10:45:43;;;;;;;9.75;2.55;;;;;;;;;;5114345;28;20028;-24
2023/03/13 10:48:14;;;;;;;7.68;2.47;;;;;;;;;;5114204;28;20047;-24
2023/03/13 10:50:44;;;;;;;4.75;2.53;;;;;;;;;;5114207;28;20024;-24
2023/03/13 10:53:25;;;;;;;6.20;1.90;;;;;;;;;;5114435;28;20028;-24
2023/03/13 10:55:55;;;;;;;4.80;1.75;;;;;;;;;;5114293;28;20036;-24
2023/03/13 10:58:23;;;;;;;16.45;3.35;;;;;;;;;;5114484;28;20027;-23
2023/03/13 11:00:49;;;;;;;13.90;3.13;;;;;;;;;;5114423;28;20032;-24
2023/03/13 11:03:22;;;;;;;8.27;2.47;;;;;;;;;;5114114;28;20059;-24
2023/03/13 11:06:06;;;;;;;7.32;2.70;;;;;;;;;;5096450;28;20032;-23
2023/03/13 11:08:36;;;;;;;9.45;2.50;;;;;;;;;;5115253;28;20023;-24
2023/03/13 11:11:04;;;;;;;8.43;2.33;;;;;;;;;;5118222;28;20159;-24
2023/03/13 11:13:41;;;;;;;6.22;2.03;;;;;;;;;;5100094;28;20034;-24
2023/03/13 11:16:15;;;;;;;1.92;1.60;;;;;;;;;;5118002;28;20077;-24
2023/03/13 11:18:47;;;;;;;4.93;1.95;;;;;;;;;;5118088;28;20047;-24
2023/03/13 11:21:19;;;;;;;9.30;3.08;;;;;;;;;;5117770;28;20047;-24
2023/03/13 11:23:49;;;;;;;8.27;1.90;;;;;;;;;;5117616;28;20043;-24
2023/03/13 11:26:19;;;;;;;5.80;2.65;;;;;;;;;;5117671;28;20031;-24
2023/03/13 11:28:45;;;;;;;4.72;2.00;;;;;;;;;;5099770;28;20023;-26
2023/03/13 11:31:17;;;;;;;5.82;2.28;;;;;;;;;;5099754;28;20358;-24
2023/03/13 11:33:46;;;;;;;9.35;2.25;;;;;;;;;;5117603;28;20108;-24
2023/03/13 11:36:15;;;;;;;5.40;2.22;;;;;;;;;;5117490;28;20514;-24
2023/03/13 11:38:43;;;;;;;5.55;2.25;;;;;;;;;;5117368;28;20578;-23
2023/03/13 11:41:17;;;;;;;7.90;2.38;;;;;;;;;;5117453;28;20069;-23
2023/03/13 11:43:46;;;;;;;12.23;2.38;;;;;;;;;;5117167;28;20019;-24
2023/03/13 11:46:25;;;;;;;6.00;2.00;;;;;;;;;;5117620;28;20023;-23
2023/03/13 11:49:06;;;;;;;6.47;2.15;;;;;;;;;;5117193;28;20027;-23
2023/03/13 11:51:58;;;;;;;5.00;2.53;;;;;;;;;;5099222;28;20024;-26
2023/03/13 11:54:43;;;;;;;5.20;2.35;;;;;;;;;;5078950;28;20035;-24
2023/03/13 11:57:28;;;;;;;9.30;2.22;;;;;;;;;;5117187;28;20046;-24
2023/03/13 12:00:09;;;;;;;8.07;2.80;;;;;;;;;;5117768;28;20110;-24
2023/03/13 12:02:48;;;;;;;11.60;2.70;;;;;;;;;;5116826;28;20114;-24
2023/03/13 12:05:16;;;;;;;9.90;2.58;;;;;;;;;;5117201;28;20123;-24
2023/03/13 12:07:46;;;;;;;5.90;2.08;;;;;;;;;;5117229;28;20450;-24
2023/03/13 12:10:14;;;;;;;4.28;1.85;;;;;;;;;;5116786;28;20024;-24
2023/03/13 12:12:49;;;;;;;11.10;3.00;;;;;;;;;;5117071;28;20432;-24
2023/03/13 12:15:18;;;;;;;3.55;1.73;;;;;;;;;;5116999;28;20020;-24
2023/03/13 12:17:50;;;;;;;5.97;2.22;;;;;;;;;;5116958;28;20019;-24
2023/03/13 12:20:16;;;;;;;10.95;2.47;;;;;;;;;;5116289;28;20057;-23
2023/03/13 12:22:47;;;;;;;3.92;1.77;;;;;;;;;;5116759;28;20335;-24
2023/03/13 12:25:23;;;;;;;6.05;1.90;;;;;;;;;;5116653;28;20023;-24
2023/03/13 12:27:52;;;;;;;10.30;2.38;;;;;;;;;;5116225;28;20023;-24
2023/03/13 12:30:24;;;;;;;5.68;2.28;;;;;;;;;;5116469;28;20061;-24
2023/03/13 12:32:53;;;;;;;6.40;2.15;;;;;;;;;;5116483;28;20016;-24
2023/03/13 12:35:31;;;;;;;3.15;1.63;;;;;;;;;;5116160;28;20080;-24
2023/03/13 12:38:16;;;;;;;5.38;1.90;;;;;;;;;;5116366;28;20046;-24
2023/03/13 12:40:48;;;;;;;19.17;3.85;;;;;;;;;;5116209;28;20074;-24
2023/03/13 12:43:14;;;;;;;6.93;1.98;;;;;;;;;;5116251;28;20048;-24
2023/03/13 12:45:55;;;;;;;7.90;1.70;;;;;;;;;;5116030;28;20028;-24
2023/03/13 12:48:40;;;;;;;4.30;1.63;;;;;;;;;;5116098;28;20045;-24
2023/03/13 12:51:18;;;;;;;5.53;2.10;;;;;;;;;;5116008;28;20278;-24
2023/03/13 12:54:03;;;;;;;3.58;2.00;;;;;;;;;;5115694;28;20030;-24
2023/03/13 12:56:29;;;;;;;7.03;2.55;;;;;;;;;;5115645;28;20084;-24
2023/03/13 12:58:57;;;;;;;5.35;1.88;;;;;;;;;;5115454;28;20413;-24
2023/03/13 13:01:30;;;;;;;5.10;2.38;;;;;;;;;;5097958;28;20023;-24
2023/03/13 13:03:58;;;;;;;3.85;2.00;;;;;;;;;;5115135;28;20044;-24
2023/03/13 13:06:25;;;;;;;10.13;1.95;;;;;;;;;;5097412;28;20024;-24
2023/03/13 13:08:54;;;;;;;5.13;1.88;;;;;;;;;;5115864;28;20350;-24
2023/03/13 13:11:38;;;;;;;9.82;2.10;;;;;;;;;;5115494;28;20035;-24
2023/03/13 13:14:18;;;;;;;12.02;1.80;;;;;;;;;;5115314;28;20027;-24
2023/03/13 13:16:46;;;;;;;7.47;1.95;;;;;;;;;;5115492;28;20020;-24
2023/03/13 13:19:24;;;;;;;5.53;1.88;;;;;;;;;;5115726;28;20020;-24
2023/03/13 13:22:09;;;;;;;5.15;1.60;;;;;;;;;;5115354;28;20076;-24
2023/03/13 13:24:39;;;;;;;3.85;2.13;;;;;;;;;;5115597;28;20031;-24
2023/03/13 13:27:25;;;;;;;4.85;2.03;;;;;;;;;;5114795;28;20042;-24
2023/03/13 13:29:53;;;;;;;4.13;2.30;;;;;;;;;;5115515;28;20051;-24
2023/03/13 13:32:28;;;;;;;11.52;2.20;;;;;;;;;;5114504;28;20417;-24
2023/03/13 13:35:17;;;;;;;3.97;2.22;;;;;;;;;;5115842;28;20080;-24
2023/03/13 13:37:43;;;;;;;12.40;2.00;;;;;;;;;;5102259;28;20110;-24
2023/03/13 13:40:17;;;;;;;5.43;2.38;;;;;;;;;;5115143;28;20331;-24
2023/03/13 13:42:55;;;;;;;12.07;2.28;;;;;;;;;;5115348;28;20031;-24
2023/03/13 13:45:28;;;;;;;4.65;1.83;;;;;;;;;;5114859;28;20027;-24
2023/03/13 13:48:14;;;;;;;6.93;1.95;;;;;;;;;;5115115;28;20027;-24
2023/03/13 13:51:01;;;;;;;6.90;1.98;;;;;;;;;;5114897;28;20042;-24
2023/03/13 13:53:30;;;;;;;8.60;1.70;;;;;;;;;;5114994;28;20401;-24
2023/03/13 13:55:57;;;;;;;3.55;1.40;;;;;;;;;;5115172;28;20111;-24
2023/03/13 13:58:24;;;;;;;8.90;2.05;;;;;;;;;;5114969;28;20027;-24
2023/03/13 14:00:50;;;;;;;10.23;1.88;;;;;;;;;;5115196;28;20031;-24
2023/03/13 14:03:26;;;;;;;10.57;1.83;;;;;;;;;;5114897;28;20044;-26
2023/03/13 14:05:55;;;;;;;4.05;1.67;;;;;;;;;;5115318;28;20043;-24
2023/03/13 14:08:38;;;;;;;3.22;1.30;;;;;;;;;;5096895;28;20035;-25
2023/03/13 14:11:23;;;;;;;5.63;2.30;;;;;;;;;;5114713;28;20032;-24
2023/03/13 14:14:15;;;;;;;2.05;1.85;;;;;;;;;;5114772;28;20016;-24
2023/03/13 14:16:45;;;;;;;5.50;1.52;;;;;;;;;;5092662;28;20093;-25
2023/03/13 14:19:22;;;;;;;8.27;1.77;;;;;;;;;;5114845;28;20041;-25
2023/03/13 14:21:48;;;;;;;6.05;1.42;;;;;;;;;;5115328;28;20345;-24
2023/03/13 14:24:14;;;;;;;4.55;1.90;;;;;;;;;;5115065;28;20335;-25
2023/03/13 14:26:44;;;;;;;2.92;1.42;;;;;;;;;;5114726;28;20457;-26
2023/03/13 14:29:19;;;;;;;7.60;2.90;;;;;;;;;;5114947;28;20027;-25
2023/03/13 14:31:55;;;;;;;2.47;1.50;;;;;;;;;;5114860;28;20024;-26
2023/03/13 14:34:22;;;;;;;3.70;1.48;;;;;;;;;;5114989;28;20011;-25
2023/03/13 14:36:55;;;;;;;2.55;2.30;;;;;;;;;;5114648;28;20047;-25
2023/03/13 14:39:30;;;;;;;6.53;2.35;;;;;;;;;;5115148;28;20020;-25
2023/03/13 14:42:01;;;;;;;6.15;2.28;;;;;;;;;;5114527;28;20081;-26
2023/03/13 14:44:30;;;;;;;5.40;1.90;;;;;;;;;;5118590;28;20399;-26
2023/03/13 14:46:58;;;;;;;3.33;1.52;;;;;;;;;;5118497;28;20072;-25
2023/03/13 14:49:25;;;;;;;5.97;2.53;;;;;;;;;;5100676;28;20409;-26
2023/03/13 14:52:02;;;;;;;5.80;1.70;;;;;;;;;;5118742;28;20043;-25
2023/03/13 14:54:33;;;;;;;4.78;1.67;;;;;;;;;;5118888;28;20049;-25